sensor_id;sensor_type;location;lat;lon;timestamp;temperature;humidity
10411;DHT22;5251;52.112;8.606;2023-04-06T00:00:43;4.10;74.30
10411;DHT22;5251;52.112;8.606;2023-04-06T00:03:09;4.10;74.40
10411;DHT22;5251;52.112;8.606;2023-04-06T00:05:34;4.00;74.70
10411;DHT22;5251;52.112;8.606;2023-04-06T00:08:00;4.10;74.90
10411;DHT22;5251;52.112;8.606;2023-04-06T00:10:26;4.00;75.00
10411;DHT22;5251;52.112;8.606;2023-04-06T00:12:52;4.00;75.00
10411;DHT22;5251;52.112;8.606;2023-04-06T00:15:18;3.90;74.80
10411;DHT22;5251;52.112;8.606;2023-04-06T00:17:43;4.00;75.40
10411;DHT22;5251;52.112;8.606;2023-04-06T00:20:09;4.00;75.80
10411;DHT22;5251;52.112;8.606;2023-04-06T00:22:35;3.90;76.00
10411;DHT22;5251;52.112;8.606;2023-04-06T00:25:01;3.90;76.30
10411;DHT22;5251;52.112;8.606;2023-04-06T00:27:26;3.90;76.20
10411;DHT22;5251;52.112;8.606;2023-04-06T00:29:52;3.80;76.10
10411;DHT22;5251;52.112;8.606;2023-04-06T00:32:18;3.80;76.10
10411;DHT22;5251;52.112;8.606;2023-04-06T00:34:43;3.80;76.10
10411;DHT22;5251;52.112;8.606;2023-04-06T00:37:10;3.80;76.10
10411;DHT22;5251;52.112;8.606;2023-04-06T00:39:35;3.80;76.10
10411;DHT22;5251;52.112;8.606;2023-04-06T00:42:11;3.80;76.10
10411;DHT22;5251;52.112;8.606;2023-04-06T00:44:39;3.80;76.40
10411;DHT22;5251;52.112;8.606;2023-04-06T00:47:05;3.80;76.40
10411;DHT22;5251;52.112;8.606;2023-04-06T00:49:32;3.70;77.20
10411;DHT22;5251;52.112;8.606;2023-04-06T00:51:58;3.80;76.50
10411;DHT22;5251;52.112;8.606;2023-04-06T00:54:23;3.80;76.40
10411;DHT22;5251;52.112;8.606;2023-04-06T00:56:50;3.70;76.40
10411;DHT22;5251;52.112;8.606;2023-04-06T00:59:15;3.80;76.50
10411;DHT22;5251;52.112;8.606;2023-04-06T01:01:41;3.70;76.30
10411;DHT22;5251;52.112;8.606;2023-04-06T01:04:07;3.70;76.20
10411;DHT22;5251;52.112;8.606;2023-04-06T01:06:32;3.70;76.30
10411;DHT22;5251;52.112;8.606;2023-04-06T01:08:58;3.70;76.30
10411;DHT22;5251;52.112;8.606;2023-04-06T01:11:24;3.70;76.40
10411;DHT22;5251;52.112;8.606;2023-04-06T01:13:50;3.70;76.30
10411;DHT22;5251;52.112;8.606;2023-04-06T01:16:15;3.60;76.30
10411;DHT22;5251;52.112;8.606;2023-04-06T01:18:41;3.70;76.50
10411;DHT22;5251;52.112;8.606;2023-04-06T01:21:09;3.60;76.50
10411;DHT22;5251;52.112;8.606;2023-04-06T01:23:42;3.60;77.20
10411;DHT22;5251;52.112;8.606;2023-04-06T01:26:07;3.60;76.60
10411;DHT22;5251;52.112;8.606;2023-04-06T01:28:33;3.60;76.90
10411;DHT22;5251;52.112;8.606;2023-04-06T01:30:59;3.60;76.90
10411;DHT22;5251;52.112;8.606;2023-04-06T01:33:24;3.50;76.80
10411;DHT22;5251;52.112;8.606;2023-04-06T01:35:50;3.50;76.90
10411;DHT22;5251;52.112;8.606;2023-04-06T01:38:15;3.50;76.80
10411;DHT22;5251;52.112;8.606;2023-04-06T01:40:41;3.50;76.80
10411;DHT22;5251;52.112;8.606;2023-04-06T01:43:07;3.50;76.90
10411;DHT22;5251;52.112;8.606;2023-04-06T01:45:32;3.50;76.90
10411;DHT22;5251;52.112;8.606;2023-04-06T01:47:58;3.50;76.90
10411;DHT22;5251;52.112;8.606;2023-04-06T01:50:23;3.50;76.80
10411;DHT22;5251;52.112;8.606;2023-04-06T01:52:49;3.40;77.00
10411;DHT22;5251;52.112;8.606;2023-04-06T01:55:15;3.40;77.10
10411;DHT22;5251;52.112;8.606;2023-04-06T01:57:40;3.40;77.00
10411;DHT22;5251;52.112;8.606;2023-04-06T02:00:06;3.40;77.20
10411;DHT22;5251;52.112;8.606;2023-04-06T02:02:32;3.40;77.20
10411;DHT22;5251;52.112;8.606;2023-04-06T02:04:58;3.40;77.30
10411;DHT22;5251;52.112;8.606;2023-04-06T02:07:23;3.40;77.50
10411;DHT22;5251;52.112;8.606;2023-04-06T02:09:53;3.30;77.40
10411;DHT22;5251;52.112;8.606;2023-04-06T02:12:19;3.40;77.70
10411;DHT22;5251;52.112;8.606;2023-04-06T02:14:44;3.20;77.60
10411;DHT22;5251;52.112;8.606;2023-04-06T02:17:10;3.30;77.80
10411;DHT22;5251;52.112;8.606;2023-04-06T02:19:36;3.30;77.80
10411;DHT22;5251;52.112;8.606;2023-04-06T02:22:01;3.20;77.60
10411;DHT22;5251;52.112;8.606;2023-04-06T02:24:27;3.20;77.90
10411;DHT22;5251;52.112;8.606;2023-04-06T02:26:52;3.20;77.90
10411;DHT22;5251;52.112;8.606;2023-04-06T02:29:18;3.30;77.90
10411;DHT22;5251;52.112;8.606;2023-04-06T02:31:43;3.20;77.80
10411;DHT22;5251;52.112;8.606;2023-04-06T02:34:09;3.20;78.00
10411;DHT22;5251;52.112;8.606;2023-04-06T02:36:37;3.20;77.90
10411;DHT22;5251;52.112;8.606;2023-04-06T02:39:02;3.20;78.00
10411;DHT22;5251;52.112;8.606;2023-04-06T02:41:28;3.10;78.10
10411;DHT22;5251;52.112;8.606;2023-04-06T02:43:54;3.10;78.20
10411;DHT22;5251;52.112;8.606;2023-04-06T02:46:19;3.20;78.30
10411;DHT22;5251;52.112;8.606;2023-04-06T02:48:45;3.10;78.20
10411;DHT22;5251;52.112;8.606;2023-04-06T02:51:11;3.10;78.30
10411;DHT22;5251;52.112;8.606;2023-04-06T02:53:36;3.10;78.50
10411;DHT22;5251;52.112;8.606;2023-04-06T02:56:02;3.10;78.70
10411;DHT22;5251;52.112;8.606;2023-04-06T02:58:27;3.10;78.80
10411;DHT22;5251;52.112;8.606;2023-04-06T03:00:53;3.00;78.70
10411;DHT22;5251;52.112;8.606;2023-04-06T03:03:18;3.00;78.90
10411;DHT22;5251;52.112;8.606;2023-04-06T03:05:44;3.10;79.00
10411;DHT22;5251;52.112;8.606;2023-04-06T03:08:10;3.00;78.90
10411;DHT22;5251;52.112;8.606;2023-04-06T03:10:35;3.00;79.00
10411;DHT22;5251;52.112;8.606;2023-04-06T03:13:01;3.00;79.20
10411;DHT22;5251;52.112;8.606;2023-04-06T03:15:26;3.00;79.30
10411;DHT22;5251;52.112;8.606;2023-04-06T03:17:52;3.00;79.20
10411;DHT22;5251;52.112;8.606;2023-04-06T03:20:17;3.00;79.20
10411;DHT22;5251;52.112;8.606;2023-04-06T03:22:43;3.00;79.30
10411;DHT22;5251;52.112;8.606;2023-04-06T03:25:09;3.00;79.30
10411;DHT22;5251;52.112;8.606;2023-04-06T03:27:34;2.90;79.30
10411;DHT22;5251;52.112;8.606;2023-04-06T03:30:00;3.00;79.90
10411;DHT22;5251;52.112;8.606;2023-04-06T03:32:25;3.00;80.00
10411;DHT22;5251;52.112;8.606;2023-04-06T03:34:51;2.90;80.00
10411;DHT22;5251;52.112;8.606;2023-04-06T03:37:17;2.90;80.30
10411;DHT22;5251;52.112;8.606;2023-04-06T03:39:42;2.90;80.40
10411;DHT22;5251;52.112;8.606;2023-04-06T03:42:08;2.90;80.30
10411;DHT22;5251;52.112;8.606;2023-04-06T03:44:34;2.90;80.40
10411;DHT22;5251;52.112;8.606;2023-04-06T03:46:59;2.90;80.50
10411;DHT22;5251;52.112;8.606;2023-04-06T03:49:25;2.90;80.50
10411;DHT22;5251;52.112;8.606;2023-04-06T03:51:51;2.90;80.60
10411;DHT22;5251;52.112;8.606;2023-04-06T03:54:16;2.90;80.60
10411;DHT22;5251;52.112;8.606;2023-04-06T03:56:42;2.90;80.60
10411;DHT22;5251;52.112;8.606;2023-04-06T03:59:07;2.90;80.80
10411;DHT22;5251;52.112;8.606;2023-04-06T04:01:33;2.80;80.60
10411;DHT22;5251;52.112;8.606;2023-04-06T04:03:58;2.80;80.80
10411;DHT22;5251;52.112;8.606;2023-04-06T04:06:24;2.80;80.80
10411;DHT22;5251;52.112;8.606;2023-04-06T04:08:50;2.80;80.80
10411;DHT22;5251;52.112;8.606;2023-04-06T04:11:16;2.80;81.00
10411;DHT22;5251;52.112;8.606;2023-04-06T04:13:41;2.80;80.90
10411;DHT22;5251;52.112;8.606;2023-04-06T04:16:07;2.80;81.00
10411;DHT22;5251;52.112;8.606;2023-04-06T04:18:33;2.80;81.00
10411;DHT22;5251;52.112;8.606;2023-04-06T04:20:58;2.80;81.10
10411;DHT22;5251;52.112;8.606;2023-04-06T04:23:24;2.80;81.00
10411;DHT22;5251;52.112;8.606;2023-04-06T04:25:49;2.80;82.10
10411;DHT22;5251;52.112;8.606;2023-04-06T04:28:16;2.80;81.30
10411;DHT22;5251;52.112;8.606;2023-04-06T04:30:41;2.70;81.30
10411;DHT22;5251;52.112;8.606;2023-04-06T04:33:07;2.70;81.20
10411;DHT22;5251;52.112;8.606;2023-04-06T04:35:33;2.70;81.30
10411;DHT22;5251;52.112;8.606;2023-04-06T04:37:58;2.70;81.30
10411;DHT22;5251;52.112;8.606;2023-04-06T04:40:24;2.70;82.20
10411;DHT22;5251;52.112;8.606;2023-04-06T04:42:49;2.70;81.60
10411;DHT22;5251;52.112;8.606;2023-04-06T04:45:16;2.60;81.70
10411;DHT22;5251;52.112;8.606;2023-04-06T04:47:42;2.60;81.70
10411;DHT22;5251;52.112;8.606;2023-04-06T04:50:07;2.70;81.90
10411;DHT22;5251;52.112;8.606;2023-04-06T04:52:33;2.60;81.90
10411;DHT22;5251;52.112;8.606;2023-04-06T04:54:59;2.60;82.10
10411;DHT22;5251;52.112;8.606;2023-04-06T04:57:24;2.60;82.20
10411;DHT22;5251;52.112;8.606;2023-04-06T04:59:50;2.60;82.30
10411;DHT22;5251;52.112;8.606;2023-04-06T05:02:16;2.60;82.70
10411;DHT22;5251;52.112;8.606;2023-04-06T05:04:42;2.60;82.70
10411;DHT22;5251;52.112;8.606;2023-04-06T05:07:08;2.60;82.70
10411;DHT22;5251;52.112;8.606;2023-04-06T05:09:34;2.60;82.70
10411;DHT22;5251;52.112;8.606;2023-04-06T05:12:00;2.60;82.70
10411;DHT22;5251;52.112;8.606;2023-04-06T05:14:27;2.60;82.80
10411;DHT22;5251;52.112;8.606;2023-04-06T05:16:53;2.60;82.70
10411;DHT22;5251;52.112;8.606;2023-04-06T05:19:19;2.70;83.00
10411;DHT22;5251;52.112;8.606;2023-04-06T05:21:45;2.70;83.20
10411;DHT22;5251;52.112;8.606;2023-04-06T05:24:10;2.70;83.20
10411;DHT22;5251;52.112;8.606;2023-04-06T05:26:37;2.70;83.30
10411;DHT22;5251;52.112;8.606;2023-04-06T05:29:03;2.80;83.40
10411;DHT22;5251;52.112;8.606;2023-04-06T05:31:29;2.80;83.50
10411;DHT22;5251;52.112;8.606;2023-04-06T05:33:55;2.90;83.70
10411;DHT22;5251;52.112;8.606;2023-04-06T05:36:20;2.90;83.60
10411;DHT22;5251;52.112;8.606;2023-04-06T05:38:46;2.90;83.60
10411;DHT22;5251;52.112;8.606;2023-04-06T05:41:12;2.90;83.80
10411;DHT22;5251;52.112;8.606;2023-04-06T05:43:38;3.00;84.10
10411;DHT22;5251;52.112;8.606;2023-04-06T05:46:03;3.10;84.20
10411;DHT22;5251;52.112;8.606;2023-04-06T05:48:29;3.10;84.20
10411;DHT22;5251;52.112;8.606;2023-04-06T05:50:55;3.20;84.40
10411;DHT22;5251;52.112;8.606;2023-04-06T05:53:20;3.30;84.50
10411;DHT22;5251;52.112;8.606;2023-04-06T05:55:47;3.30;84.50
10411;DHT22;5251;52.112;8.606;2023-04-06T05:58:12;3.40;84.70
10411;DHT22;5251;52.112;8.606;2023-04-06T06:00:39;3.50;84.70
10411;DHT22;5251;52.112;8.606;2023-04-06T06:03:05;3.60;84.70
10411;DHT22;5251;52.112;8.606;2023-04-06T06:05:31;3.70;84.50
10411;DHT22;5251;52.112;8.606;2023-04-06T06:07:57;3.80;84.60
10411;DHT22;5251;52.112;8.606;2023-04-06T06:10:22;3.90;85.70
10411;DHT22;5251;52.112;8.606;2023-04-06T06:12:48;4.00;85.00
10411;DHT22;5251;52.112;8.606;2023-04-06T06:15:14;4.00;85.20
10411;DHT22;5251;52.112;8.606;2023-04-06T06:17:39;4.20;85.10
10411;DHT22;5251;52.112;8.606;2023-04-06T06:20:06;4.20;84.90
10411;DHT22;5251;52.112;8.606;2023-04-06T06:22:32;4.30;84.90
10411;DHT22;5251;52.112;8.606;2023-04-06T06:24:58;4.40;84.50
10411;DHT22;5251;52.112;8.606;2023-04-06T06:27:23;4.50;84.30
10411;DHT22;5251;52.112;8.606;2023-04-06T06:29:49;4.60;84.20
10411;DHT22;5251;52.112;8.606;2023-04-06T06:32:15;4.70;83.90
10411;DHT22;5251;52.112;8.606;2023-04-06T06:34:40;4.80;84.10
10411;DHT22;5251;52.112;8.606;2023-04-06T06:37:06;4.90;84.10
10411;DHT22;5251;52.112;8.606;2023-04-06T06:39:32;5.00;84.10
10411;DHT22;5251;52.112;8.606;2023-04-06T06:41:57;5.10;84.30
10411;DHT22;5251;52.112;8.606;2023-04-06T06:44:25;5.10;84.00
10411;DHT22;5251;52.112;8.606;2023-04-06T06:46:51;5.30;84.20
10411;DHT22;5251;52.112;8.606;2023-04-06T06:49:17;5.30;84.60
10411;DHT22;5251;52.112;8.606;2023-04-06T06:51:43;5.50;83.10
10411;DHT22;5251;52.112;8.606;2023-04-06T06:54:09;5.50;82.60
10411;DHT22;5251;52.112;8.606;2023-04-06T06:56:35;5.70;83.30
10411;DHT22;5251;52.112;8.606;2023-04-06T06:59:03;5.80;83.40
10411;DHT22;5251;52.112;8.606;2023-04-06T07:01:29;5.90;82.20
10411;DHT22;5251;52.112;8.606;2023-04-06T07:03:55;5.90;82.20
10411;DHT22;5251;52.112;8.606;2023-04-06T07:06:20;6.10;82.30
10411;DHT22;5251;52.112;8.606;2023-04-06T07:08:46;6.20;82.40
10411;DHT22;5251;52.112;8.606;2023-04-06T07:11:12;6.40;82.40
10411;DHT22;5251;52.112;8.606;2023-04-06T07:13:37;6.50;81.70
10411;DHT22;5251;52.112;8.606;2023-04-06T07:16:03;6.70;83.20
10411;DHT22;5251;52.112;8.606;2023-04-06T07:18:29;6.80;82.70
10411;DHT22;5251;52.112;8.606;2023-04-06T07:20:55;6.90;82.00
10411;DHT22;5251;52.112;8.606;2023-04-06T07:23:20;7.10;81.70
10411;DHT22;5251;52.112;8.606;2023-04-06T07:25:47;7.20;81.90
10411;DHT22;5251;52.112;8.606;2023-04-06T07:28:12;7.40;81.40
10411;DHT22;5251;52.112;8.606;2023-04-06T07:30:38;7.50;81.60
10411;DHT22;5251;52.112;8.606;2023-04-06T07:33:04;7.60;80.90
10411;DHT22;5251;52.112;8.606;2023-04-06T07:35:31;7.70;80.10
10411;DHT22;5251;52.112;8.606;2023-04-06T07:37:56;7.80;78.90
10411;DHT22;5251;52.112;8.606;2023-04-06T07:40:22;8.00;79.80
10411;DHT22;5251;52.112;8.606;2023-04-06T07:42:48;8.10;79.60
10411;DHT22;5251;52.112;8.606;2023-04-06T07:45:14;8.20;78.80
10411;DHT22;5251;52.112;8.606;2023-04-06T07:47:41;8.40;79.10
10411;DHT22;5251;52.112;8.606;2023-04-06T07:50:07;8.50;78.80
10411;DHT22;5251;52.112;8.606;2023-04-06T07:52:33;8.60;78.20
10411;DHT22;5251;52.112;8.606;2023-04-06T07:54:59;8.70;78.00
10411;DHT22;5251;52.112;8.606;2023-04-06T07:57:25;8.80;78.00
10411;DHT22;5251;52.112;8.606;2023-04-06T07:59:50;8.90;77.90
10411;DHT22;5251;52.112;8.606;2023-04-06T08:02:16;9.10;77.60
10411;DHT22;5251;52.112;8.606;2023-04-06T08:04:42;9.20;77.60
10411;DHT22;5251;52.112;8.606;2023-04-06T08:07:08;9.30;77.50
10411;DHT22;5251;52.112;8.606;2023-04-06T08:09:33;9.40;76.60
10411;DHT22;5251;52.112;8.606;2023-04-06T08:11:59;9.50;77.00
10411;DHT22;5251;52.112;8.606;2023-04-06T08:14:24;9.60;76.50
10411;DHT22;5251;52.112;8.606;2023-04-06T08:16:50;9.70;76.10
10411;DHT22;5251;52.112;8.606;2023-04-06T08:19:15;9.80;77.20
10411;DHT22;5251;52.112;8.606;2023-04-06T08:21:43;9.80;75.50
10411;DHT22;5251;52.112;8.606;2023-04-06T08:24:09;9.90;74.90
10411;DHT22;5251;52.112;8.606;2023-04-06T08:26:34;10.00;73.90
10411;DHT22;5251;52.112;8.606;2023-04-06T08:29:00;10.10;74.20
10411;DHT22;5251;52.112;8.606;2023-04-06T08:31:26;10.20;73.70
10411;DHT22;5251;52.112;8.606;2023-04-06T08:33:51;10.30;73.80
10411;DHT22;5251;52.112;8.606;2023-04-06T08:36:17;10.30;73.60
10411;DHT22;5251;52.112;8.606;2023-04-06T08:38:48;10.40;74.50
10411;DHT22;5251;52.112;8.606;2023-04-06T08:41:15;10.50;74.10
10411;DHT22;5251;52.112;8.606;2023-04-06T08:43:47;10.60;73.10
10411;DHT22;5251;52.112;8.606;2023-04-06T08:46:14;10.60;73.90
10411;DHT22;5251;52.112;8.606;2023-04-06T08:48:41;10.70;73.90
10411;DHT22;5251;52.112;8.606;2023-04-06T08:51:08;10.80;73.40
10411;DHT22;5251;52.112;8.606;2023-04-06T08:53:34;10.90;73.00
10411;DHT22;5251;52.112;8.606;2023-04-06T08:56:01;11.00;73.60
10411;DHT22;5251;52.112;8.606;2023-04-06T08:58:31;11.00;73.70
10411;DHT22;5251;52.112;8.606;2023-04-06T09:00:59;11.10;73.50
10411;DHT22;5251;52.112;8.606;2023-04-06T09:03:26;11.20;71.80
10411;DHT22;5251;52.112;8.606;2023-04-06T09:05:53;11.20;71.90
10411;DHT22;5251;52.112;8.606;2023-04-06T09:08:19;11.30;72.20
10411;DHT22;5251;52.112;8.606;2023-04-06T09:10:45;11.40;71.70
10411;DHT22;5251;52.112;8.606;2023-04-06T09:13:11;11.50;70.60
10411;DHT22;5251;52.112;8.606;2023-04-06T09:15:37;11.50;71.90
10411;DHT22;5251;52.112;8.606;2023-04-06T09:18:03;11.60;70.40
10411;DHT22;5251;52.112;8.606;2023-04-06T09:20:28;11.60;69.90
10411;DHT22;5251;52.112;8.606;2023-04-06T09:22:55;11.70;69.90
10411;DHT22;5251;52.112;8.606;2023-04-06T09:25:22;11.70;69.00
10411;DHT22;5251;52.112;8.606;2023-04-06T09:27:57;11.80;69.70
10411;DHT22;5251;52.112;8.606;2023-04-06T09:30:23;11.90;68.40
10411;DHT22;5251;52.112;8.606;2023-04-06T09:32:51;11.90;67.70
10411;DHT22;5251;52.112;8.606;2023-04-06T09:35:18;12.00;69.30
10411;DHT22;5251;52.112;8.606;2023-04-06T09:37:48;12.10;69.40
10411;DHT22;5251;52.112;8.606;2023-04-06T09:40:14;12.10;67.70
10411;DHT22;5251;52.112;8.606;2023-04-06T09:42:41;12.20;68.60
10411;DHT22;5251;52.112;8.606;2023-04-06T09:45:07;12.20;67.50
10411;DHT22;5251;52.112;8.606;2023-04-06T09:47:36;12.30;68.20
10411;DHT22;5251;52.112;8.606;2023-04-06T09:50:02;12.30;66.90
10411;DHT22;5251;52.112;8.606;2023-04-06T09:52:40;12.40;69.30
10411;DHT22;5251;52.112;8.606;2023-04-06T09:55:08;12.40;66.70
10411;DHT22;5251;52.112;8.606;2023-04-06T09:57:52;12.50;68.50
10411;DHT22;5251;52.112;8.606;2023-04-06T10:00:21;12.50;69.00
10411;DHT22;5251;52.112;8.606;2023-04-06T10:05:50;12.60;67.70
10411;DHT22;5251;52.112;8.606;2023-04-06T10:08:18;12.70;67.00
10411;DHT22;5251;52.112;8.606;2023-04-06T10:10:44;12.80;68.00
10411;DHT22;5251;52.112;8.606;2023-04-06T10:13:11;12.80;68.50
10411;DHT22;5251;52.112;8.606;2023-04-06T10:15:38;12.90;68.30
10411;DHT22;5251;52.112;8.606;2023-04-06T10:18:05;12.90;66.60
10411;DHT22;5251;52.112;8.606;2023-04-06T10:23:24;13.00;65.90
10411;DHT22;5251;52.112;8.606;2023-04-06T10:25:57;13.10;65.10
10411;DHT22;5251;52.112;8.606;2023-04-06T10:28:23;13.10;64.40
10411;DHT22;5251;52.112;8.606;2023-04-06T10:30:49;13.20;64.40
10411;DHT22;5251;52.112;8.606;2023-04-06T10:33:21;13.30;62.70
10411;DHT22;5251;52.112;8.606;2023-04-06T10:35:47;13.30;62.30
10411;DHT22;5251;52.112;8.606;2023-04-06T10:38:12;13.40;64.20
10411;DHT22;5251;52.112;8.606;2023-04-06T10:40:45;13.40;61.70
10411;DHT22;5251;52.112;8.606;2023-04-06T10:43:23;13.50;63.70
10411;DHT22;5251;52.112;8.606;2023-04-06T10:45:56;13.60;61.80
10411;DHT22;5251;52.112;8.606;2023-04-06T10:48:22;13.70;63.10
10411;DHT22;5251;52.112;8.606;2023-04-06T10:50:50;13.80;62.90
10411;DHT22;5251;52.112;8.606;2023-04-06T10:53:27;13.90;62.70
10411;DHT22;5251;52.112;8.606;2023-04-06T10:55:55;14.00;62.20
10411;DHT22;5251;52.112;8.606;2023-04-06T10:58:25;14.10;59.90
10411;DHT22;5251;52.112;8.606;2023-04-06T11:00:51;14.20;61.10
10411;DHT22;5251;52.112;8.606;2023-04-06T11:03:17;14.30;60.60
10411;DHT22;5251;52.112;8.606;2023-04-06T11:05:46;14.40;60.60
10411;DHT22;5251;52.112;8.606;2023-04-06T11:08:31;14.50;59.30
10411;DHT22;5251;52.112;8.606;2023-04-06T11:11:05;14.50;61.00
10411;DHT22;5251;52.112;8.606;2023-04-06T11:13:42;14.60;60.70
10411;DHT22;5251;52.112;8.606;2023-04-06T11:16:19;14.60;61.30
10411;DHT22;5251;52.112;8.606;2023-04-06T11:21:17;14.70;59.10
10411;DHT22;5251;52.112;8.606;2023-04-06T11:23:43;14.80;59.10
10411;DHT22;5251;52.112;8.606;2023-04-06T11:26:13;14.80;59.60
10411;DHT22;5251;52.112;8.606;2023-04-06T11:28:42;14.90;59.10
10411;DHT22;5251;52.112;8.606;2023-04-06T11:31:10;14.90;61.70
10411;DHT22;5251;52.112;8.606;2023-04-06T11:33:37;15.00;60.80
10411;DHT22;5251;52.112;8.606;2023-04-06T11:36:04;15.00;60.10
10411;DHT22;5251;52.112;8.606;2023-04-06T11:38:30;15.10;59.20
10411;DHT22;5251;52.112;8.606;2023-04-06T11:40:56;15.10;59.10
10411;DHT22;5251;52.112;8.606;2023-04-06T11:43:30;15.20;59.40
10411;DHT22;5251;52.112;8.606;2023-04-06T11:46:03;15.20;59.80
10411;DHT22;5251;52.112;8.606;2023-04-06T11:48:30;15.30;59.70
10411;DHT22;5251;52.112;8.606;2023-04-06T11:50:59;15.30;60.40
10411;DHT22;5251;52.112;8.606;2023-04-06T11:53:27;15.40;60.50
10411;DHT22;5251;52.112;8.606;2023-04-06T11:55:53;15.40;58.80
10411;DHT22;5251;52.112;8.606;2023-04-06T11:58:19;15.50;57.80
10411;DHT22;5251;52.112;8.606;2023-04-06T12:00:45;15.50;58.20
10411;DHT22;5251;52.112;8.606;2023-04-06T12:03:14;15.60;58.30
10411;DHT22;5251;52.112;8.606;2023-04-06T12:05:40;15.60;56.70
10411;DHT22;5251;52.112;8.606;2023-04-06T12:08:05;15.60;58.20
10411;DHT22;5251;52.112;8.606;2023-04-06T12:10:31;15.60;56.00
10411;DHT22;5251;52.112;8.606;2023-04-06T12:12:56;15.70;57.10
10411;DHT22;5251;52.112;8.606;2023-04-06T12:15:22;15.70;57.60
10411;DHT22;5251;52.112;8.606;2023-04-06T12:17:48;15.70;57.70
10411;DHT22;5251;52.112;8.606;2023-04-06T12:20:15;15.80;57.70
10411;DHT22;5251;52.112;8.606;2023-04-06T12:22:40;15.90;58.10
10411;DHT22;5251;52.112;8.606;2023-04-06T12:25:06;15.90;59.30
10411;DHT22;5251;52.112;8.606;2023-04-06T12:27:32;16.00;58.50
10411;DHT22;5251;52.112;8.606;2023-04-06T12:29:58;16.00;56.10
10411;DHT22;5251;52.112;8.606;2023-04-06T12:32:23;16.10;54.80
10411;DHT22;5251;52.112;8.606;2023-04-06T12:34:50;16.10;55.50
10411;DHT22;5251;52.112;8.606;2023-04-06T12:37:16;16.20;56.20
10411;DHT22;5251;52.112;8.606;2023-04-06T12:39:41;16.20;54.50
10411;DHT22;5251;52.112;8.606;2023-04-06T12:42:09;16.20;55.30
10411;DHT22;5251;52.112;8.606;2023-04-06T12:44:35;16.20;55.50
10411;DHT22;5251;52.112;8.606;2023-04-06T12:47:01;16.20;55.30
10411;DHT22;5251;52.112;8.606;2023-04-06T12:49:26;16.20;53.00
10411;DHT22;5251;52.112;8.606;2023-04-06T12:51:52;16.30;52.00
10411;DHT22;5251;52.112;8.606;2023-04-06T12:54:17;16.20;52.30
10411;DHT22;5251;52.112;8.606;2023-04-06T12:56:43;16.20;53.90
10411;DHT22;5251;52.112;8.606;2023-04-06T12:59:09;16.20;52.90
10411;DHT22;5251;52.112;8.606;2023-04-06T13:01:34;16.20;53.40
10411;DHT22;5251;52.112;8.606;2023-04-06T13:04:00;16.20;51.80
10411;DHT22;5251;52.112;8.606;2023-04-06T13:06:26;16.20;51.80
10411;DHT22;5251;52.112;8.606;2023-04-06T13:08:55;16.20;53.50
10411;DHT22;5251;52.112;8.606;2023-04-06T13:11:21;16.20;53.80
10411;DHT22;5251;52.112;8.606;2023-04-06T13:13:49;16.30;52.50
10411;DHT22;5251;52.112;8.606;2023-04-06T13:16:14;16.30;54.80
10411;DHT22;5251;52.112;8.606;2023-04-06T13:18:40;16.30;51.50
10411;DHT22;5251;52.112;8.606;2023-04-06T13:21:07;16.40;50.10
10411;DHT22;5251;52.112;8.606;2023-04-06T13:23:33;16.40;49.90
10411;DHT22;5251;52.112;8.606;2023-04-06T13:26:00;16.40;50.60
10411;DHT22;5251;52.112;8.606;2023-04-06T13:28:26;16.40;51.60
10411;DHT22;5251;52.112;8.606;2023-04-06T13:30:52;16.50;52.20
10411;DHT22;5251;52.112;8.606;2023-04-06T13:33:18;16.50;50.00
10411;DHT22;5251;52.112;8.606;2023-04-06T13:35:46;16.50;49.60
10411;DHT22;5251;52.112;8.606;2023-04-06T13:38:13;16.50;50.70
10411;DHT22;5251;52.112;8.606;2023-04-06T13:40:39;16.60;51.10
10411;DHT22;5251;52.112;8.606;2023-04-06T13:43:06;16.60;49.80
10411;DHT22;5251;52.112;8.606;2023-04-06T13:45:31;16.60;51.50
10411;DHT22;5251;52.112;8.606;2023-04-06T13:47:57;16.60;51.10
10411;DHT22;5251;52.112;8.606;2023-04-06T13:50:25;16.60;51.40
10411;DHT22;5251;52.112;8.606;2023-04-06T13:52:50;16.60;53.30
10411;DHT22;5251;52.112;8.606;2023-04-06T13:55:16;16.70;52.50
10411;DHT22;5251;52.112;8.606;2023-04-06T13:57:41;16.70;51.90
10411;DHT22;5251;52.112;8.606;2023-04-06T14:00:07;16.70;51.80
10411;DHT22;5251;52.112;8.606;2023-04-06T14:02:34;16.70;51.60
10411;DHT22;5251;52.112;8.606;2023-04-06T14:05:00;16.80;51.50
10411;DHT22;5251;52.112;8.606;2023-04-06T14:07:25;16.80;50.90
10411;DHT22;5251;52.112;8.606;2023-04-06T14:09:51;16.80;50.90
10411;DHT22;5251;52.112;8.606;2023-04-06T14:12:17;16.90;51.20
10411;DHT22;5251;52.112;8.606;2023-04-06T14:14:42;16.90;49.60
10411;DHT22;5251;52.112;8.606;2023-04-06T14:17:08;16.90;50.50
10411;DHT22;5251;52.112;8.606;2023-04-06T14:19:33;16.90;49.30
10411;DHT22;5251;52.112;8.606;2023-04-06T14:21:59;16.90;50.30
10411;DHT22;5251;52.112;8.606;2023-04-06T14:24:25;16.90;51.10
10411;DHT22;5251;52.112;8.606;2023-04-06T14:26:51;16.90;50.60
10411;DHT22;5251;52.112;8.606;2023-04-06T14:29:17;16.90;50.20
10411;DHT22;5251;52.112;8.606;2023-04-06T14:31:46;16.90;49.90
10411;DHT22;5251;52.112;8.606;2023-04-06T14:34:12;16.90;50.20
10411;DHT22;5251;52.112;8.606;2023-04-06T14:36:37;16.80;49.40
10411;DHT22;5251;52.112;8.606;2023-04-06T14:39:04;16.80;49.50
10411;DHT22;5251;52.112;8.606;2023-04-06T14:41:30;16.80;50.00
10411;DHT22;5251;52.112;8.606;2023-04-06T14:43:56;16.70;51.00
10411;DHT22;5251;52.112;8.606;2023-04-06T14:46:22;16.70;50.40
10411;DHT22;5251;52.112;8.606;2023-04-06T14:48:48;16.70;51.00
10411;DHT22;5251;52.112;8.606;2023-04-06T14:51:13;16.60;52.10
10411;DHT22;5251;52.112;8.606;2023-04-06T14:53:39;16.60;49.70
10411;DHT22;5251;52.112;8.606;2023-04-06T14:56:06;16.60;50.30
10411;DHT22;5251;52.112;8.606;2023-04-06T14:58:31;16.60;50.80
10411;DHT22;5251;52.112;8.606;2023-04-06T15:01:01;16.60;51.60
10411;DHT22;5251;52.112;8.606;2023-04-06T15:03:28;16.60;52.80
10411;DHT22;5251;52.112;8.606;2023-04-06T15:05:57;16.60;51.90
10411;DHT22;5251;52.112;8.606;2023-04-06T15:08:23;16.60;51.10
10411;DHT22;5251;52.112;8.606;2023-04-06T15:10:49;16.60;51.80
10411;DHT22;5251;52.112;8.606;2023-04-06T15:13:15;16.70;51.40
10411;DHT22;5251;52.112;8.606;2023-04-06T15:15:41;16.60;51.70
10411;DHT22;5251;52.112;8.606;2023-04-06T15:18:08;16.70;53.50
10411;DHT22;5251;52.112;8.606;2023-04-06T15:20:34;16.70;53.20
10411;DHT22;5251;52.112;8.606;2023-04-06T15:23:01;16.80;53.20
10411;DHT22;5251;52.112;8.606;2023-04-06T15:25:27;16.80;51.90
10411;DHT22;5251;52.112;8.606;2023-04-06T15:27:54;16.90;52.00
10411;DHT22;5251;52.112;8.606;2023-04-06T15:30:19;16.90;52.70
10411;DHT22;5251;52.112;8.606;2023-04-06T15:32:59;16.90;52.30
10411;DHT22;5251;52.112;8.606;2023-04-06T15:35:28;17.00;51.50
10411;DHT22;5251;52.112;8.606;2023-04-06T15:37:55;17.00;51.20
10411;DHT22;5251;52.112;8.606;2023-04-06T15:40:21;17.10;52.20
10411;DHT22;5251;52.112;8.606;2023-04-06T15:42:47;17.10;51.10
10411;DHT22;5251;52.112;8.606;2023-04-06T15:45:13;17.10;51.40
10411;DHT22;5251;52.112;8.606;2023-04-06T15:47:40;17.20;51.50
10411;DHT22;5251;52.112;8.606;2023-04-06T15:50:06;17.20;52.00
10411;DHT22;5251;52.112;8.606;2023-04-06T15:52:33;17.20;51.70
10411;DHT22;5251;52.112;8.606;2023-04-06T15:54:59;17.20;52.90
10411;DHT22;5251;52.112;8.606;2023-04-06T15:57:24;17.20;52.50